sensor_id;sensor_type;location;lat;lon;timestamp;pressure;altitude;pressure_sealevel;temperature;humidity
11830;BME280;5972;42.134;24.718;2023-12-29T00:01:16;100374.13;;;4.84;100.00
11830;BME280;5972;42.134;24.718;2023-12-29T00:03:43;100366.81;;;4.90;100.00
11830;BME280;5972;42.134;24.718;2023-12-29T00:06:10;100369.72;;;4.93;100.00
11830;BME280;5972;42.134;24.718;2023-12-29T00:08:37;100362.53;;;4.89;100.00
11830;BME280;5972;42.134;24.718;2023-12-29T00:11:04;100347.31;;;4.79;100.00
11830;BME280;5972;42.134;24.718;2023-12-29T00:13:31;100350.19;;;4.88;100.00
11830;BME280;5972;42.134;24.718;2023-12-29T00:15:58;100353.41;;;4.90;100.00
11830;BME280;5972;42.134;24.718;2023-12-29T00:18:26;100303.88;;;4.58;100.00
11830;BME280;5972;42.134;24.718;2023-12-29T00:20:53;100349.97;;;4.84;100.00
11830;BME280;5972;42.134;24.718;2023-12-29T00:23:20;100348.66;;;4.82;100.00
11830;BME280;5972;42.134;24.718;2023-12-29T00:25:47;100349.00;;;4.75;100.00
11830;BME280;5972;42.134;24.718;2023-12-29T00:28:14;100347.69;;;4.73;100.00
11830;BME280;5972;42.134;24.718;2023-12-29T00:30:41;100342.88;;;4.70;100.00
11830;BME280;5972;42.134;24.718;2023-12-29T00:33:08;100326.16;;;4.54;100.00
11830;BME280;5972;42.134;24.718;2023-12-29T00:35:38;100327.34;;;4.43;100.00
11830;BME280;5972;42.134;24.718;2023-12-29T00:38:05;100337.78;;;4.44;100.00
11830;BME280;5972;42.134;24.718;2023-12-29T00:40:32;100338.88;;;4.43;100.00
11830;BME280;5972;42.134;24.718;2023-12-29T00:43:00;100337.50;;;4.46;100.00
11830;BME280;5972;42.134;24.718;2023-12-29T00:45:27;100340.69;;;4.48;100.00
11830;BME280;5972;42.134;24.718;2023-12-29T00:47:58;100339.91;;;4.47;100.00
11830;BME280;5972;42.134;24.718;2023-12-29T00:50:25;100335.06;;;4.49;100.00
11830;BME280;5972;42.134;24.718;2023-12-29T00:52:54;100339.03;;;4.52;100.00
11830;BME280;5972;42.134;24.718;2023-12-29T00:55:21;100332.09;;;4.51;100.00
11830;BME280;5972;42.134;24.718;2023-12-29T00:57:48;100338.59;;;4.45;100.00
11830;BME280;5972;42.134;24.718;2023-12-29T01:00:15;100331.31;;;4.50;100.00
11830;BME280;5972;42.134;24.718;2023-12-29T01:02:42;100318.50;;;4.42;100.00
11830;BME280;5972;42.134;24.718;2023-12-29T01:05:09;100320.38;;;4.42;100.00
11830;BME280;5972;42.134;24.718;2023-12-29T01:07:36;100321.38;;;4.51;100.00
11830;BME280;5972;42.134;24.718;2023-12-29T01:10:06;100318.41;;;4.52;100.00
11830;BME280;5972;42.134;24.718;2023-12-29T01:12:33;100311.28;;;4.43;100.00
11830;BME280;5972;42.134;24.718;2023-12-29T01:15:00;100304.03;;;4.43;100.00
11830;BME280;5972;42.134;24.718;2023-12-29T01:17:27;100304.59;;;4.40;100.00
11830;BME280;5972;42.134;24.718;2023-12-29T01:19:54;100304.56;;;4.45;100.00
11830;BME280;5972;42.134;24.718;2023-12-29T01:22:21;100288.81;;;4.39;100.00
11830;BME280;5972;42.134;24.718;2023-12-29T01:24:49;100304.31;;;4.42;100.00
11830;BME280;5972;42.134;24.718;2023-12-29T01:27:17;100288.34;;;4.32;100.00
11830;BME280;5972;42.134;24.718;2023-12-29T01:29:44;100296.56;;;4.40;100.00
11830;BME280;5972;42.134;24.718;2023-12-29T01:32:11;100296.59;;;4.35;100.00
11830;BME280;5972;42.134;24.718;2023-12-29T01:34:38;100280.88;;;4.29;100.00
11830;BME280;5972;42.134;24.718;2023-12-29T01:37:05;100289.00;;;4.18;100.00
11830;BME280;5972;42.134;24.718;2023-12-29T01:39:33;100297.34;;;4.17;100.00
11830;BME280;5972;42.134;24.718;2023-12-29T01:42:01;100295.69;;;4.21;100.00
11830;BME280;5972;42.134;24.718;2023-12-29T01:44:29;100291.72;;;4.13;100.00
11830;BME280;5972;42.134;24.718;2023-12-29T01:46:59;100286.63;;;4.17;100.00
11830;BME280;5972;42.134;24.718;2023-12-29T01:49:29;100281.31;;;4.12;100.00
11830;BME280;5972;42.134;24.718;2023-12-29T01:51:58;100277.88;;;4.06;100.00
11830;BME280;5972;42.134;24.718;2023-12-29T01:54:29;100268.34;;;3.95;100.00
11830;BME280;5972;42.134;24.718;2023-12-29T01:56:59;100269.50;;;3.84;100.00
11830;BME280;5972;42.134;24.718;2023-12-29T01:59:29;100274.66;;;3.75;100.00
11830;BME280;5972;42.134;24.718;2023-12-29T02:01:56;100256.81;;;3.66;100.00
11830;BME280;5972;42.134;24.718;2023-12-29T02:04:24;100295.19;;;3.85;100.00
11830;BME280;5972;42.134;24.718;2023-12-29T02:06:51;100296.59;;;3.78;100.00
11830;BME280;5972;42.134;24.718;2023-12-29T02:09:19;100301.47;;;3.70;100.00
11830;BME280;5972;42.134;24.718;2023-12-29T02:11:46;100278.88;;;3.48;100.00
11830;BME280;5972;42.134;24.718;2023-12-29T02:14:14;100292.28;;;3.43;100.00
11830;BME280;5972;42.134;24.718;2023-12-29T02:16:47;100295.03;;;3.32;100.00
11830;BME280;5972;42.134;24.718;2023-12-29T02:19:34;100293.66;;;3.35;100.00
11830;BME280;5972;42.134;24.718;2023-12-29T02:22:03;100302.50;;;3.35;100.00
11830;BME280;5972;42.134;24.718;2023-12-29T02:24:30;100295.56;;;3.29;100.00
11830;BME280;5972;42.134;24.718;2023-12-29T02:27:06;100296.63;;;3.33;100.00
11830;BME280;5972;42.134;24.718;2023-12-29T02:29:36;100284.88;;;3.29;100.00
11830;BME280;5972;42.134;24.718;2023-12-29T02:32:11;100276.88;;;3.24;100.00
11830;BME280;5972;42.134;24.718;2023-12-29T02:34:40;100285.16;;;3.28;100.00
11830;BME280;5972;42.134;24.718;2023-12-29T02:37:08;100264.06;;;3.21;100.00
11830;BME280;5972;42.134;24.718;2023-12-29T02:39:36;100277.94;;;3.28;100.00
11830;BME280;5972;42.134;24.718;2023-12-29T02:42:05;100285.63;;;3.35;100.00
11830;BME280;5972;42.134;24.718;2023-12-29T02:44:32;100272.00;;;3.37;100.00
11830;BME280;5972;42.134;24.718;2023-12-29T02:46:59;100273.81;;;3.41;100.00
11830;BME280;5972;42.134;24.718;2023-12-29T02:49:27;100271.69;;;3.43;100.00
11830;BME280;5972;42.134;24.718;2023-12-29T02:51:54;100274.09;;;3.45;100.00
11830;BME280;5972;42.134;24.718;2023-12-29T02:54:21;100193.59;;;3.02;100.00
11830;BME280;5972;42.134;24.718;2023-12-29T02:56:48;100263.66;;;3.43;100.00
11830;BME280;5972;42.134;24.718;2023-12-29T02:59:16;100259.34;;;3.47;100.00
11830;BME280;5972;42.134;24.718;2023-12-29T03:01:43;100258.31;;;3.43;100.00
11830;BME280;5972;42.134;24.718;2023-12-29T03:04:10;100248.66;;;3.47;100.00
11830;BME280;5972;42.134;24.718;2023-12-29T03:06:38;100241.66;;;3.51;100.00
11830;BME280;5972;42.134;24.718;2023-12-29T03:09:06;100244.91;;;3.48;100.00
11830;BME280;5972;42.134;24.718;2023-12-29T03:11:33;100237.66;;;3.49;100.00
11830;BME280;5972;42.134;24.718;2023-12-29T03:14:00;100235.78;;;3.49;100.00
11830;BME280;5972;42.134;24.718;2023-12-29T03:16:29;100232.56;;;3.52;100.00
11830;BME280;5972;42.134;24.718;2023-12-29T03:18:56;100228.00;;;3.53;100.00
11830;BME280;5972;42.134;24.718;2023-12-29T03:21:22;100236.56;;;3.55;100.00
11830;BME280;5972;42.134;24.718;2023-12-29T03:23:49;100230.59;;;3.63;100.00
11830;BME280;5972;42.134;24.718;2023-12-29T03:26:16;100233.25;;;3.63;100.00
11830;BME280;5972;42.134;24.718;2023-12-29T03:28:43;100232.25;;;3.59;100.00
11830;BME280;5972;42.134;24.718;2023-12-29T03:31:10;100225.94;;;3.45;100.00
11830;BME280;5972;42.134;24.718;2023-12-29T03:33:38;100227.25;;;3.47;100.00
11830;BME280;5972;42.134;24.718;2023-12-29T03:36:05;100205.38;;;3.35;100.00
11830;BME280;5972;42.134;24.718;2023-12-29T03:38:33;100224.25;;;3.54;100.00
11830;BME280;5972;42.134;24.718;2023-12-29T03:41:00;100227.19;;;3.52;100.00
11830;BME280;5972;42.134;24.718;2023-12-29T03:43:27;100224.81;;;3.51;100.00
11830;BME280;5972;42.134;24.718;2023-12-29T03:45:54;100200.03;;;3.35;100.00
11830;BME280;5972;42.134;24.718;2023-12-29T03:48:21;100223.75;;;3.47;100.00
11830;BME280;5972;42.134;24.718;2023-12-29T03:50:49;100222.19;;;3.41;100.00
11830;BME280;5972;42.134;24.718;2023-12-29T03:53:16;100223.03;;;3.36;100.00
11830;BME280;5972;42.134;24.718;2023-12-29T03:55:44;100207.66;;;3.23;100.00
11830;BME280;5972;42.134;24.718;2023-12-29T03:58:11;100217.19;;;3.34;100.00
11830;BME280;5972;42.134;24.718;2023-12-29T04:00:38;100207.59;;;3.28;100.00
11830;BME280;5972;42.134;24.718;2023-12-29T04:03:07;100188.94;;;3.18;100.00
11830;BME280;5972;42.134;24.718;2023-12-29T04:05:34;100214.78;;;3.32;100.00
11830;BME280;5972;42.134;24.718;2023-12-29T04:08:02;100215.06;;;3.31;100.00
11830;BME280;5972;42.134;24.718;2023-12-29T04:10:28;100215.66;;;3.23;100.00
11830;BME280;5972;42.134;24.718;2023-12-29T04:12:55;100213.75;;;3.28;100.00
11830;BME280;5972;42.134;24.718;2023-12-29T04:15:22;100213.53;;;3.20;100.00
11830;BME280;5972;42.134;24.718;2023-12-29T04:17:49;100210.81;;;3.25;100.00
11830;BME280;5972;42.134;24.718;2023-12-29T04:20:16;100214.25;;;3.30;100.00
11830;BME280;5972;42.134;24.718;2023-12-29T04:22:44;100207.59;;;3.28;100.00
11830;BME280;5972;42.134;24.718;2023-12-29T04:25:12;100204.63;;;3.29;100.00
11830;BME280;5972;42.134;24.718;2023-12-29T04:27:39;100200.09;;;3.30;100.00
11830;BME280;5972;42.134;24.718;2023-12-29T04:30:07;100198.47;;;3.34;100.00
11830;BME280;5972;42.134;24.718;2023-12-29T04:32:34;100203.25;;;3.37;100.00
11830;BME280;5972;42.134;24.718;2023-12-29T04:35:01;100198.97;;;3.36;100.00
11830;BME280;5972;42.134;24.718;2023-12-29T04:37:28;100201.69;;;3.31;100.00
11830;BME280;5972;42.134;24.718;2023-12-29T04:39:56;100197.41;;;3.30;100.00
11830;BME280;5972;42.134;24.718;2023-12-29T04:42:24;100200.94;;;3.25;100.00
11830;BME280;5972;42.134;24.718;2023-12-29T04:44:51;100211.63;;;3.25;100.00
11830;BME280;5972;42.134;24.718;2023-12-29T04:47:18;100208.41;;;3.23;100.00
11830;BME280;5972;42.134;24.718;2023-12-29T04:49:45;100160.22;;;3.00;100.00
11830;BME280;5972;42.134;24.718;2023-12-29T04:52:12;100206.28;;;3.25;100.00
11830;BME280;5972;42.134;24.718;2023-12-29T04:54:39;100206.84;;;3.22;100.00
11830;BME280;5972;42.134;24.718;2023-12-29T04:57:06;100200.50;;;3.08;100.00
11830;BME280;5972;42.134;24.718;2023-12-29T04:59:34;100214.91;;;3.17;100.00
11830;BME280;5972;42.134;24.718;2023-12-29T05:02:01;100210.97;;;3.05;100.00
11830;BME280;5972;42.134;24.718;2023-12-29T05:04:28;100209.56;;;3.12;100.00
11830;BME280;5972;42.134;24.718;2023-12-29T05:06:55;100206.38;;;3.10;100.00
11830;BME280;5972;42.134;24.718;2023-12-29T05:09:22;100200.78;;;3.07;100.00
11830;BME280;5972;42.134;24.718;2023-12-29T05:11:49;100182.16;;;2.91;100.00
11830;BME280;5972;42.134;24.718;2023-12-29T05:14:16;100206.19;;;2.97;100.00
11830;BME280;5972;42.134;24.718;2023-12-29T05:16:45;100207.06;;;2.87;100.00
11830;BME280;5972;42.134;24.718;2023-12-29T05:19:12;100212.13;;;2.88;100.00
11830;BME280;5972;42.134;24.718;2023-12-29T05:21:39;100210.25;;;2.89;100.00
11830;BME280;5972;42.134;24.718;2023-12-29T05:24:07;100198.50;;;2.85;100.00
11830;BME280;5972;42.134;24.718;2023-12-29T05:26:34;100200.13;;;2.81;100.00
11830;BME280;5972;42.134;24.718;2023-12-29T05:29:01;100201.75;;;2.82;100.00
11830;BME280;5972;42.134;24.718;2023-12-29T05:31:29;100206.84;;;2.78;100.00
11830;BME280;5972;42.134;24.718;2023-12-29T05:33:57;100211.41;;;2.68;100.00
11830;BME280;5972;42.134;24.718;2023-12-29T05:36:24;100211.13;;;2.74;100.00
11830;BME280;5972;42.134;24.718;2023-12-29T05:38:51;100215.72;;;2.64;100.00
11830;BME280;5972;42.134;24.718;2023-12-29T05:41:19;100210.94;;;2.61;100.00
11830;BME280;5972;42.134;24.718;2023-12-29T05:43:46;100217.88;;;2.62;100.00
11830;BME280;5972;42.134;24.718;2023-12-29T05:46:13;100204.31;;;2.48;100.00
11830;BME280;5972;42.134;24.718;2023-12-29T05:48:40;100179.81;;;2.26;100.00
11830;BME280;5972;42.134;24.718;2023-12-29T05:51:09;100210.47;;;2.43;100.00
11830;BME280;5972;42.134;24.718;2023-12-29T05:53:36;100225.13;;;2.46;100.00
11830;BME280;5972;42.134;24.718;2023-12-29T05:56:04;100232.34;;;2.45;100.00
11830;BME280;5972;42.134;24.718;2023-12-29T05:58:31;100225.44;;;2.34;100.00
11830;BME280;5972;42.134;24.718;2023-12-29T06:00:58;100238.50;;;2.41;100.00
11830;BME280;5972;42.134;24.718;2023-12-29T06:03:26;100216.63;;;2.39;100.00
11830;BME280;5972;42.134;24.718;2023-12-29T06:05:53;100233.16;;;2.46;100.00
11830;BME280;5972;42.134;24.718;2023-12-29T06:08:22;100228.31;;;2.53;100.00
11830;BME280;5972;42.134;24.718;2023-12-29T06:10:48;100236.59;;;2.51;100.00
11830;BME280;5972;42.134;24.718;2023-12-29T06:13:16;100213.97;;;2.34;100.00
11830;BME280;5972;42.134;24.718;2023-12-29T06:15:43;100242.44;;;2.59;100.00
11830;BME280;5972;42.134;24.718;2023-12-29T06:18:10;100232.00;;;2.62;100.00
11830;BME280;5972;42.134;24.718;2023-12-29T06:20:37;100237.34;;;2.62;100.00
11830;BME280;5972;42.134;24.718;2023-12-29T06:23:04;100234.41;;;2.69;100.00
11830;BME280;5972;42.134;24.718;2023-12-29T06:25:32;100234.69;;;2.67;100.00
11830;BME280;5972;42.134;24.718;2023-12-29T06:28:00;100242.38;;;2.74;100.00
11830;BME280;5972;42.134;24.718;2023-12-29T06:30:28;100241.06;;;2.71;100.00
11830;BME280;5972;42.134;24.718;2023-12-29T06:32:55;100238.91;;;2.78;100.00
11830;BME280;5972;42.134;24.718;2023-12-29T06:35:22;100244.22;;;2.83;100.00
11830;BME280;5972;42.134;24.718;2023-12-29T06:37:49;100229.56;;;2.76;100.00
11830;BME280;5972;42.134;24.718;2023-12-29T06:40:17;100235.13;;;2.84;100.00
11830;BME280;5972;42.134;24.718;2023-12-29T06:42:45;100235.38;;;2.88;100.00
11830;BME280;5972;42.134;24.718;2023-12-29T06:45:12;100223.88;;;2.87;100.00
11830;BME280;5972;42.134;24.718;2023-12-29T06:47:39;100227.88;;;2.95;100.00
11830;BME280;5972;42.134;24.718;2023-12-29T06:50:07;100224.66;;;2.93;100.00
11830;BME280;5972;42.134;24.718;2023-12-29T06:52:38;100227.84;;;3.00;100.00
11830;BME280;5972;42.134;24.718;2023-12-29T06:55:06;100227.31;;;2.98;100.00
11830;BME280;5972;42.134;24.718;2023-12-29T06:57:33;100220.31;;;3.02;100.00
11830;BME280;5972;42.134;24.718;2023-12-29T07:00:01;100226.97;;;3.10;100.00
11830;BME280;5972;42.134;24.718;2023-12-29T07:02:29;100229.03;;;3.18;100.00
11830;BME280;5972;42.134;24.718;2023-12-29T07:04:56;100222.38;;;3.15;100.00
11830;BME280;5972;42.134;24.718;2023-12-29T07:07:24;100229.22;;;3.31;100.00
11830;BME280;5972;42.134;24.718;2023-12-29T07:09:51;100227.31;;;3.37;100.00
11830;BME280;5972;42.134;24.718;2023-12-29T07:12:18;100207.00;;;3.36;100.00
11830;BME280;5972;42.134;24.718;2023-12-29T07:14:45;100222.91;;;3.51;100.00
11830;BME280;5972;42.134;24.718;2023-12-29T07:17:13;100218.69;;;3.50;100.00
11830;BME280;5972;42.134;24.718;2023-12-29T07:19:40;100191.88;;;3.55;100.00
11830;BME280;5972;42.134;24.718;2023-12-29T07:22:07;100216.31;;;3.78;100.00
11830;BME280;5972;42.134;24.718;2023-12-29T07:24:35;100222.34;;;3.88;100.00
11830;BME280;5972;42.134;24.718;2023-12-29T07:27:02;100228.41;;;3.99;100.00
11830;BME280;5972;42.134;24.718;2023-12-29T07:29:29;100219.94;;;4.15;100.00
11830;BME280;5972;42.134;24.718;2023-12-29T07:31:56;100209.34;;;4.29;100.00
11830;BME280;5972;42.134;24.718;2023-12-29T07:34:26;100203.81;;;4.87;100.00
11830;BME280;5972;42.134;24.718;2023-12-29T07:36:53;100221.22;;;6.51;100.00
11830;BME280;5972;42.134;24.718;2023-12-29T07:39:20;100219.13;;;8.01;100.00
11830;BME280;5972;42.134;24.718;2023-12-29T07:41:47;100217.25;;;9.49;100.00
11830;BME280;5972;42.134;24.718;2023-12-29T07:44:17;100200.38;;;10.33;87.65
11830;BME280;5972;42.134;24.718;2023-12-29T07:46:44;100194.28;;;10.95;76.42
11830;BME280;5972;42.134;24.718;2023-12-29T07:49:11;100202.00;;;11.46;70.68
11830;BME280;5972;42.134;24.718;2023-12-29T07:51:46;100197.75;;;11.90;65.32
11830;BME280;5972;42.134;24.718;2023-12-29T07:54:13;100193.28;;;12.55;61.40
11830;BME280;5972;42.134;24.718;2023-12-29T07:56:41;100204.88;;;13.04;58.94
11830;BME280;5972;42.134;24.718;2023-12-29T07:59:08;100195.91;;;13.56;56.19
11830;BME280;5972;42.134;24.718;2023-12-29T08:01:35;100202.69;;;13.78;54.97
11830;BME280;5972;42.134;24.718;2023-12-29T08:04:03;100202.84;;;13.97;53.59
11830;BME280;5972;42.134;24.718;2023-12-29T08:06:32;100195.91;;;14.31;52.53
11830;BME280;5972;42.134;24.718;2023-12-29T08:09:01;100195.28;;;14.69;50.65
11830;BME280;5972;42.134;24.718;2023-12-29T08:11:28;100198.44;;;14.55;50.66
11830;BME280;5972;42.134;24.718;2023-12-29T08:13:55;100212.63;;;14.95;49.62
11830;BME280;5972;42.134;24.718;2023-12-29T08:16:22;100206.81;;;14.97;49.39
11830;BME280;5972;42.134;24.718;2023-12-29T08:18:49;100210.84;;;15.03;49.23
11830;BME280;5972;42.134;24.718;2023-12-29T08:21:17;100210.50;;;15.24;48.64
11830;BME280;5972;42.134;24.718;2023-12-29T08:23:45;100211.66;;;15.42;48.66
11830;BME280;5972;42.134;24.718;2023-12-29T08:26:14;100206.25;;;15.84;47.17
11830;BME280;5972;42.134;24.718;2023-12-29T08:28:41;100206.84;;;16.16;46.28
11830;BME280;5972;42.134;24.718;2023-12-29T08:31:08;100201.38;;;16.16;45.96
11830;BME280;5972;42.134;24.718;2023-12-29T08:33:35;100198.75;;;16.23;45.55
11830;BME280;5972;42.134;24.718;2023-12-29T08:36:03;100208.75;;;16.61;45.19
11830;BME280;5972;42.134;24.718;2023-12-29T08:38:30;100195.31;;;16.75;44.97
11830;BME280;5972;42.134;24.718;2023-12-29T08:40:56;100194.97;;;17.07;43.84
11830;BME280;5972;42.134;24.718;2023-12-29T08:43:25;100179.28;;;17.67;42.85
11830;BME280;5972;42.134;24.718;2023-12-29T08:45:52;100185.66;;;18.18;41.22
11830;BME280;5972;42.134;24.718;2023-12-29T08:48:19;100171.66;;;18.31;40.60
11830;BME280;5972;42.134;24.718;2023-12-29T08:50:46;100181.19;;;18.44;40.50
11830;BME280;5972;42.134;24.718;2023-12-29T08:53:13;100171.69;;;18.34;39.64
11830;BME280;5972;42.134;24.718;2023-12-29T08:55:41;100183.16;;;18.50;39.91
11830;BME280;5972;42.134;24.718;2023-12-29T08:58:08;100179.56;;;18.39;40.56
11830;BME280;5972;42.134;24.718;2023-12-29T09:00:36;100167.75;;;18.83;39.55
11830;BME280;5972;42.134;24.718;2023-12-29T09:03:04;100184.84;;;19.38;38.51
11830;BME280;5972;42.134;24.718;2023-12-29T09:05:31;100176.00;;;20.15;37.32
11830;BME280;5972;42.134;24.718;2023-12-29T09:07:58;100163.81;;;20.77;35.63
11830;BME280;5972;42.134;24.718;2023-12-29T09:10:25;100161.09;;;20.27;35.78
11830;BME280;5972;42.134;24.718;2023-12-29T09:12:52;100153.22;;;19.72;36.56
11830;BME280;5972;42.134;24.718;2023-12-29T09:15:19;100161.09;;;20.09;35.90
11830;BME280;5972;42.134;24.718;2023-12-29T09:17:48;100165.78;;;19.80;36.42
11830;BME280;5972;42.134;24.718;2023-12-29T09:20:16;100159.84;;;19.61;36.28
11830;BME280;5972;42.134;24.718;2023-12-29T09:22:43;100151.28;;;19.87;35.24
11830;BME280;5972;42.134;24.718;2023-12-29T09:25:10;100167.34;;;19.81;35.48
11830;BME280;5972;42.134;24.718;2023-12-29T09:27:38;100161.88;;;20.31;35.16
11830;BME280;5972;42.134;24.718;2023-12-29T09:30:06;100164.22;;;19.97;34.88
11830;BME280;5972;42.134;24.718;2023-12-29T09:32:33;100163.47;;;20.50;33.55
11830;BME280;5972;42.134;24.718;2023-12-29T09:35:02;100148.91;;;20.67;33.29
11830;BME280;5972;42.134;24.718;2023-12-29T09:37:30;100154.34;;;19.57;33.91
11830;BME280;5972;42.134;24.718;2023-12-29T09:39:57;100157.16;;;19.96;34.26
11830;BME280;5972;42.134;24.718;2023-12-29T09:42:24;100146.56;;;20.41;33.36
11830;BME280;5972;42.134;24.718;2023-12-29T09:44:55;100137.50;;;20.65;32.61
11830;BME280;5972;42.134;24.718;2023-12-29T09:47:23;100134.41;;;20.56;32.86
11830;BME280;5972;42.134;24.718;2023-12-29T09:49:52;100124.44;;;21.01;32.15
11830;BME280;5972;42.134;24.718;2023-12-29T09:52:21;100118.50;;;21.17;31.14
11830;BME280;5972;42.134;24.718;2023-12-29T09:54:49;100099.03;;;20.54;32.01
11830;BME280;5972;42.134;24.718;2023-12-29T09:57:18;100110.72;;;18.44;34.53
11830;BME280;5972;42.134;24.718;2023-12-29T09:59:45;100101.41;;;19.57;33.53
11830;BME280;5972;42.134;24.718;2023-12-29T10:02:17;100085.72;;;20.17;33.05
11830;BME280;5972;42.134;24.718;2023-12-29T10:04:44;100098.22;;;20.57;32.18
11830;BME280;5972;42.134;24.718;2023-12-29T10:07:18;100097.91;;;19.84;33.00
11830;BME280;5972;42.134;24.718;2023-12-29T10:09:50;100077.88;;;20.26;32.93
11830;BME280;5972;42.134;24.718;2023-12-29T10:12:19;100091.50;;;20.76;31.99
11830;BME280;5972;42.134;24.718;2023-12-29T10:14:51;100084.13;;;20.48;32.22
11830;BME280;5972;42.134;24.718;2023-12-29T10:17:28;100075.38;;;20.82;32.05
11830;BME280;5972;42.134;24.718;2023-12-29T10:20:03;100071.56;;;20.54;32.23
11830;BME280;5972;42.134;24.718;2023-12-29T10:22:42;100059.38;;;20.55;32.61
11830;BME280;5972;42.134;24.718;2023-12-29T10:25:17;100065.72;;;19.67;33.42
11830;BME280;5972;42.134;24.718;2023-12-29T10:27:45;100057.78;;;20.51;32.65
11830;BME280;5972;42.134;24.718;2023-12-29T10:30:12;100044.81;;;20.65;32.84
11830;BME280;5972;42.134;24.718;2023-12-29T10:32:40;100051.63;;;21.12;32.20
11830;BME280;5972;42.134;24.718;2023-12-29T10:35:11;100060.00;;;20.91;32.33
11830;BME280;5972;42.134;24.718;2023-12-29T10:37:38;100052.34;;;21.31;32.14
11830;BME280;5972;42.134;24.718;2023-12-29T10:40:07;100063.34;;;19.44;34.38
11830;BME280;5972;42.134;24.718;2023-12-29T10:42:51;100047.25;;;20.39;33.07
11830;BME280;5972;42.134;24.718;2023-12-29T10:45:18;100047.28;;;19.68;34.04
11830;BME280;5972;42.134;24.718;2023-12-29T10:47:45;100044.00;;;18.88;34.90
11830;BME280;5972;42.134;24.718;2023-12-29T10:50:12;100051.94;;;20.24;33.56
11830;BME280;5972;42.134;24.718;2023-12-29T10:52:39;100041.69;;;20.53;33.10
11830;BME280;5972;42.134;24.718;2023-12-29T10:55:09;100037.44;;;20.34;33.09
11830;BME280;5972;42.134;24.718;2023-12-29T10:57:39;100034.69;;;20.13;33.09
11830;BME280;5972;42.134;24.718;2023-12-29T11:00:07;100025.16;;;20.67;32.79
11830;BME280;5972;42.134;24.718;2023-12-29T11:02:34;100021.72;;;20.24;33.17
11830;BME280;5972;42.134;24.718;2023-12-29T11:05:05;100014.06;;;20.85;32.54
11830;BME280;5972;42.134;24.718;2023-12-29T11:07:37;100008.16;;;20.86;32.04
11830;BME280;5972;42.134;24.718;2023-12-29T11:10:06;100011.13;;;20.26;32.86
11830;BME280;5972;42.134;24.718;2023-12-29T11:12:34;100015.44;;;19.14;34.18
11830;BME280;5972;42.134;24.718;2023-12-29T11:15:04;100009.19;;;19.24;33.95
11830;BME280;5972;42.134;24.718;2023-12-29T11:17:33;100015.44;;;19.14;34.30
11830;BME280;5972;42.134;24.718;2023-12-29T11:20:02;100002.94;;;19.90;33.57
11830;BME280;5972;42.134;24.718;2023-12-29T11:22:31;100006.78;;;20.50;32.68
11830;BME280;5972;42.134;24.718;2023-12-29T11:24:58;99994.91;;;20.67;32.12
11830;BME280;5972;42.134;24.718;2023-12-29T11:27:27;99984.31;;;20.62;32.02
11830;BME280;5972;42.134;24.718;2023-12-29T11:29:56;100003.50;;;20.76;31.83
11830;BME280;5972;42.134;24.718;2023-12-29T11:32:30;99986.59;;;20.74;32.10
11830;BME280;5972;42.134;24.718;2023-12-29T11:35:05;99990.41;;;19.93;32.77
11830;BME280;5972;42.134;24.718;2023-12-29T11:37:47;99991.94;;;20.01;32.37
11830;BME280;5972;42.134;24.718;2023-12-29T11:40:20;99977.88;;;19.57;33.00
11830;BME280;5972;42.134;24.718;2023-12-29T11:42:52;99979.75;;;18.92;33.18
11830;BME280;5972;42.134;24.718;2023-12-29T11:45:24;99972.94;;;18.47;34.09
11830;BME280;5972;42.134;24.718;2023-12-29T11:47:54;99971.72;;;18.45;34.43
11830;BME280;5972;42.134;24.718;2023-12-29T11:50:30;99974.28;;;18.06;35.25
11830;BME280;5972;42.134;24.718;2023-12-29T11:52:58;99972.91;;;17.27;36.36
11830;BME280;5972;42.134;24.718;2023-12-29T11:55:29;99974.16;;;16.59;37.69
11830;BME280;5972;42.134;24.718;2023-12-29T11:57:57;99962.59;;;16.73;37.53
11830;BME280;5972;42.134;24.718;2023-12-29T12:00:41;99954.00;;;16.71;37.13
11830;BME280;5972;42.134;24.718;2023-12-29T12:03:25;99963.59;;;16.95;37.32
11830;BME280;5972;42.134;24.718;2023-12-29T12:05:54;99959.03;;;17.06;37.35
11830;BME280;5972;42.134;24.718;2023-12-29T12:08:28;99978.50;;;16.34;39.25
11830;BME280;5972;42.134;24.718;2023-12-29T12:10:55;99976.06;;;16.26;39.42
11830;BME280;5972;42.134;24.718;2023-12-29T12:13:42;99975.91;;;16.45;39.02
11830;BME280;5972;42.134;24.718;2023-12-29T12:16:09;99975.53;;;16.46;38.89
11830;BME280;5972;42.134;24.718;2023-12-29T12:18:39;99966.41;;;16.35;38.66
11830;BME280;5972;42.134;24.718;2023-12-29T12:21:07;99972.91;;;16.23;38.75
11830;BME280;5972;42.134;24.718;2023-12-29T12:23:35;99972.97;;;16.01;38.95
11830;BME280;5972;42.134;24.718;2023-12-29T12:26:06;99963.06;;;15.89;39.34
11830;BME280;5972;42.134;24.718;2023-12-29T12:28:34;99955.72;;;16.23;38.76
11830;BME280;5972;42.134;24.718;2023-12-29T12:31:05;99967.72;;;16.45;38.43
11830;BME280;5972;42.134;24.718;2023-12-29T12:33:32;99966.97;;;16.18;38.87
11830;BME280;5972;42.134;24.718;2023-12-29T12:36:01;99966.84;;;16.37;38.82
11830;BME280;5972;42.134;24.718;2023-12-29T12:38:28;99961.03;;;16.09;39.40
11830;BME280;5972;42.134;24.718;2023-12-29T12:40:57;99952.75;;;16.05;39.33
11830;BME280;5972;42.134;24.718;2023-12-29T12:43:26;99964.84;;;16.34;39.68
11830;BME280;5972;42.134;24.718;2023-12-29T12:45:59;99958.44;;;16.53;38.91
11830;BME280;5972;42.134;24.718;2023-12-29T12:48:32;99958.03;;;16.51;39.45
11830;BME280;5972;42.134;24.718;2023-12-29T12:51:02;99966.28;;;16.54;39.42
11830;BME280;5972;42.134;24.718;2023-12-29T12:53:29;99963.28;;;16.63;39.26
11830;BME280;5972;42.134;24.718;2023-12-29T12:55:57;99971.09;;;16.65;39.43